• Join FlightAware (Why Join?)
  • Login
  • US Flag 
08:33AM EDT


 

Airport Tracker/Info


-or-


 

Live Flight TrackerFlight Track Log ✈ LAN934 ✈ 27-Jun-2013 ✈ SCEL / SCL - SAME / MDZ

Flight Track Log - Related Links

Times and Time Zones

All times are in EDT time to prevent confusion due to time zone crossing. See the LAN934 flight status page for this flight to view local times or setup timezone preferences in your user account.

Time Position Orientation Groundspeed Altitude Reporting Facility
EDT Latitude Longitude Course Direction KTS MPH feet Rate Location/Type
03:00PM -33.3940 -70.7930 32° Northeast  Level FlightAware
03:02PM -33.3940 -70.7890 90° East 240 Level FlightAware
03:04PM -33.3960 -70.7880 157° South 300 Level FlightAware
03:04PM -33.4000 -70.7870 168° South 420 Level FlightAware
03:07PM -33.3599 -70.7045 60° Northeast  Level FlightAware Approximate
03:08PM -33.3479 -70.6598 77° East  Level Estimated
03:09PM -33.3333 -70.6163 68° East  Level FlightAware Approximate
03:10PM -33.3214 -70.5716 79° East  Level Estimated
03:10PM -33.3690 -70.7860 76° East 166 191 2,900  Level FlightAware
03:11PM -33.3121 -70.5260 76° East  Level FlightAware Approximate
03:11PM -33.3450 -70.7870 358° North 204 235 3,500  Level FlightAware
03:11PM -33.3170 -70.7890 357° North 225 259 4,600 3,000 Climbing FlightAware
03:12PM -33.2800 -70.7910 357° North 243 280 6,300 3,120 Climbing FlightAware
03:13PM -33.2110 -70.7950 357° North 263 303 9,100 2,580 Climbing FlightAware
03:13PM -33.1950 -70.7960 357° North 267 307 9,800 2,820 Climbing FlightAware
03:14PM -33.1310 -70.7990 358° North 278 320 12,200 2,040 Climbing FlightAware
03:16PM -33.1216 -70.7323 80° East  Level Estimated
03:17PM -33.1162 -70.6945 80° East  Level Estimated
03:18PM -33.1109 -70.6568 80° East  Level Estimated
03:19PM -33.1055 -70.6190 80° East  Level Estimated
03:20PM -33.1002 -70.5813 80° East  Level Estimated
03:20PM -33.3080 -70.9430 80° East 360 414 23,700  Level FlightAware
03:20PM -33.4190 -70.9410 179° South 411 473 24,700 1,680 Climbing FlightAware
03:21PM -33.5010 -70.9380 178° South 409 471 26,100 1,500 Climbing FlightAware
03:22PM -33.5800 -70.9360 179° South 402 463 27,000 660 Climbing FlightAware
03:22PM -33.6290 -70.9340 178° South 402 463 27,000  Level FlightAware
03:24PM -33.7850 -70.9010 170° South 447 514 27,000  Level FlightAware
03:24PM -33.8550 -70.8820 167° South 452 520 27,000  Level FlightAware
03:27PM -33.8170 -70.8022 60° Northeast  Level Estimated
03:28PM -33.8010 -70.7687 60° Northeast  Level Estimated
03:28PM -34.3420 -70.7450 60° Northeast 453 521 27,000  Level FlightAware
03:29PM -34.4180 -70.7230 167° South 456 525 27,000  Level FlightAware
03:32PM -34.3596 -70.6500 46° Northeast  Level Estimated
03:33PM -34.3373 -70.6221 46° Northeast  Level Estimated
03:33PM -34.9860 -70.5570 46° Northeast 478 550 27,000  Level FlightAware
03:34PM -34.3149 -70.5942 46° Northeast  Level Estimated
03:34PM -35.1030 -70.4840 153° Southeast 502 578 27,000  Level FlightAware
03:36PM -35.2780 -70.3290 144° Southeast 505 581 27,000  Level FlightAware
03:37PM -35.3370 -70.2760 144° Southeast 505 581 27,000  Level FlightAware
03:37PM -35.4020 -70.2180 144° Southeast 505 581 27,000  Level FlightAware
03:38PM -35.4790 -70.1500 144° Southeast 505 581 27,000 -720 Level FlightAware
03:41PM -35.4074 -70.1120 23° Northeast  Level Estimated
03:42PM -35.3779 -70.0964 23° Northeast  Level Estimated
03:43PM -35.3584 -70.0861 23° Northeast  Level Estimated
03:44PM -35.3389 -70.0758 23° Northeast  Level Estimated
03:45PM -35.3194 -70.0655 23° Northeast  Level Estimated
03:46PM -35.2999 -70.0552 23° Northeast  Level Estimated
03:47PM -35.2804 -70.0449 23° Northeast  Level Estimated
03:48PM -35.2608 -70.0346 23° Northeast  Level Estimated
03:49PM -35.2413 -70.0243 23° Northeast  Level Estimated
03:50PM -35.2218 -70.0140 23° Northeast  Level Estimated
03:51PM -35.2023 -70.0037 23° Northeast  Level Estimated
03:52PM -35.1828 -69.9934 23° Northeast  Level Estimated
03:53PM -35.1632 -69.9832 23° Northeast  Level Estimated
03:54PM -35.1437 -69.9729 23° Northeast  Level Estimated
03:55PM -35.1242 -69.9626 23° Northeast  Level Estimated
03:56PM -35.1047 -69.9524 23° Northeast  Level Estimated
03:57PM -35.0842 -69.9416 23° Northeast  Level Estimated
03:58PM -35.0637 -69.9308 23° Northeast  Level Estimated
03:59PM -35.0431 -69.9201 23° Northeast  Level Estimated
04:00PM -35.0226 -69.9093 23° Northeast  Level Estimated
04:01PM -35.0021 -69.8986 23° Northeast  Level Estimated
04:02PM -34.9816 -69.8878 23° Northeast  Level Estimated
04:03PM -34.9611 -69.8771 23° Northeast  Level Estimated
04:04PM -34.9405 -69.8663 23° Northeast  Level Estimated
04:05PM -34.9200 -69.8556 23° Northeast  Level Estimated
04:06PM -34.8995 -69.8449 23° Northeast  Level Estimated
04:07PM -34.8790 -69.8342 23° Northeast  Level Estimated
04:08PM -34.8585 -69.8234 23° Northeast  Level Estimated
04:08PM -33.0000 -68.5770 23° Northeast 275 316 5,200  Level FlightAware
04:08PM -32.9900 -68.5870 320° Northwest 279 321 5,000 -780 Descending FlightAware
04:09PM -34.8379 -69.8127 23° Northeast  Level Estimated
04:09PM -32.9460 -68.6310 320° Northwest 249 287 4,500  Level FlightAware
04:10PM -32.9140 -68.6640 319° Northwest 255 293 4,500  Level FlightAware
04:11PM -32.8600 -68.7180 320° Northwest 253 291 4,500  Level FlightAware
04:11PM -32.8370 -68.7420 319° Northwest 242 278 4,500  Level FlightAware
04:12PM -32.8190 -68.7490 342° North 223 257 4,500  Level FlightAware
04:12PM -32.7800 -68.7480 North 209 241 4,500 120 Level FlightAware
04:12PM -32.7690 -68.7470 North 197 227 4,600 -360 Climbing FlightAware
04:13PM -32.7480 -68.7810 306° West 155 178 4,100 -660 Descending FlightAware
04:14PM -32.7560 -68.7890 220° Southwest 160 184 3,800 -960 Descending FlightAware
04:14PM -32.7640 -68.7910 192° South 166 191 3,700 -900 Descending FlightAware
04:14PM -32.7850 -68.7920 182° South 165 190 3,200 -1,020 Descending FlightAware
04:15PM -32.8050 -68.7930 182° South 156 180 2,800 -900 Descending FlightAware
04:15PM -32.8260 -68.7930 180° South 155 178 2,400 -780 Descending FlightAware
04:18PM -32.8317 -68.7929 41° Northeast  Level Estimated
04:18PM -32.8340 -68.7950 41° Northeast 26 30  Level FlightAware
04:18PM -32.8310 -68.7950 360° North 25 29  Level FlightAware
04:18PM -32.8290 -68.7960 337° Northwest 18 21  Level FlightAware
04:19PM -32.8280 -68.7970 320° Northwest 11 13  Level FlightAware
04:22PM -32.8317 -68.7929 45° Northeast  Level Estimated
04:23PM -32.8317 -68.7929 65° Northeast  Level Estimated
04:24PM -32.8317 -68.7929 65° Northeast  Level Estimated
04:25PM -32.8317 -68.7929 65° Northeast  Level Estimated
04:26PM -32.8317 -68.7929 65° Northeast  Level Estimated